createdAt,value
2019-04-06T00:01:14.079Z,64.56
2019-04-06T00:04:01.432Z,64.42
2019-04-06T00:06:49.199Z,64.68
2019-04-06T00:09:36.931Z,64.85
2019-04-06T00:12:24.508Z,64.90
2019-04-06T00:15:12.117Z,65.08
2019-04-06T00:17:59.466Z,64.66
2019-04-06T00:20:46.701Z,64.41
2019-04-06T00:23:34.496Z,64.91
2019-04-06T00:26:22.393Z,64.94
2019-04-06T00:29:09.883Z,64.88
2019-04-06T00:32:02.163Z,64.84
2019-04-06T00:34:49.817Z,65.35
2019-04-06T00:37:37.204Z,65.15
2019-04-06T00:40:24.958Z,64.64
2019-04-06T00:43:12.910Z,65.25
2019-04-06T00:45:59.989Z,65.61
2019-04-06T00:48:47.521Z,65.37
2019-04-06T00:51:34.944Z,65.29
2019-04-06T00:54:22.769Z,65.48
2019-04-06T00:57:10.242Z,66.00
2019-04-06T00:59:57.797Z,66.54
2019-04-06T01:02:45.369Z,66.68
2019-04-06T01:05:33.018Z,66.26
2019-04-06T01:08:20.606Z,66.35
2019-04-06T01:11:07.918Z,66.46
2019-04-06T01:13:55.604Z,65.95
2019-04-06T01:16:43.119Z,65.33
2019-04-06T01:19:31.047Z,65.06
2019-04-06T01:22:18.867Z,65.74
2019-04-06T01:25:06.727Z,65.79
2019-04-06T01:27:54.456Z,66.15
2019-04-06T01:30:42.271Z,66.03
2019-04-06T01:33:29.918Z,65.79
2019-04-06T01:36:17.311Z,66.80
2019-04-06T01:39:06.534Z,67.09
2019-04-06T01:41:53.752Z,66.95
2019-04-06T01:44:41.209Z,66.79
2019-04-06T01:47:28.846Z,66.74
2019-04-06T01:50:15.940Z,66.25
2019-04-06T01:53:03.499Z,65.49
2019-04-06T01:55:51.464Z,65.41
2019-04-06T01:58:38.782Z,65.88
2019-04-06T02:01:30.523Z,67.01
2019-04-06T02:04:18.286Z,67.42
2019-04-06T02:07:06.119Z,66.59
2019-04-06T02:09:53.938Z,65.91
2019-04-06T02:12:41.346Z,66.66
2019-04-06T02:15:29.139Z,67.70
2019-04-06T02:18:17.346Z,67.70
2019-04-06T02:21:04.772Z,67.76
2019-04-06T02:23:52.173Z,68.17
2019-04-06T02:26:39.606Z,68.36
2019-04-06T02:29:27.068Z,68.17
2019-04-06T02:32:39.748Z,67.95
2019-04-06T02:35:37.378Z,67.87
2019-04-06T02:38:44.218Z,67.80
2019-04-06T02:42:03.060Z,67.92
2019-04-06T02:44:50.730Z,68.03
2019-04-06T02:47:38.280Z,68.16
2019-04-06T02:50:25.622Z,67.82
2019-04-06T02:53:13.411Z,67.49
2019-04-06T02:56:01.116Z,67.15
2019-04-06T02:58:48.610Z,66.96
2019-04-06T03:01:36.103Z,67.85
2019-04-06T03:04:23.525Z,68.01
2019-04-06T03:07:11.344Z,67.74
2019-04-06T03:09:58.874Z,68.10
2019-04-06T03:12:46.762Z,68.39
2019-04-06T03:15:34.114Z,68.42
2019-04-06T03:18:21.437Z,68.57
2019-04-06T03:21:08.830Z,69.12
2019-04-06T03:23:56.455Z,69.19
2019-04-06T03:26:44.038Z,68.68
2019-04-06T03:29:31.857Z,68.54
2019-04-06T03:32:19.324Z,68.57
2019-04-06T03:35:07.691Z,68.15
2019-04-06T03:37:55.433Z,68.00
2019-04-06T03:40:42.644Z,67.74
2019-04-06T03:43:30.460Z,68.01
2019-04-06T03:46:17.811Z,67.90
2019-04-06T03:49:05.340Z,67.88
2019-04-06T03:51:52.833Z,68.15
2019-04-06T03:54:40.245Z,68.72
2019-04-06T03:57:27.616Z,68.78
2019-04-06T04:00:16.329Z,68.84
2019-04-06T04:03:03.692Z,68.60
2019-04-06T04:05:51.186Z,68.47
2019-04-06T04:08:38.636Z,68.18
2019-04-06T04:11:26.098Z,68.04
2019-04-06T04:14:13.587Z,68.03
2019-04-06T04:17:00.931Z,67.82
2019-04-06T04:19:48.539Z,67.53
2019-04-06T04:22:35.881Z,67.96
2019-04-06T04:25:23.363Z,68.18
2019-04-06T04:28:10.999Z,68.19
2019-04-06T04:30:58.565Z,68.22
2019-04-06T04:33:45.946Z,68.13
2019-04-06T04:36:33.631Z,68.93
2019-04-06T04:39:21.157Z,68.97
2019-04-06T04:42:08.844Z,69.01
2019-04-06T04:44:56.643Z,68.95
2019-04-06T04:47:44.296Z,68.66
2019-04-06T04:50:31.787Z,69.06
2019-04-06T04:53:19.187Z,69.05
2019-04-06T04:56:07.154Z,68.51
2019-04-06T04:58:54.690Z,68.79
2019-04-06T05:01:42.225Z,68.79
2019-04-06T05:04:30.018Z,68.96
2019-04-06T05:07:17.640Z,68.71
2019-04-06T05:10:05.863Z,68.45
2019-04-06T05:12:53.640Z,68.50
2019-04-06T05:16:09.744Z,68.59
2019-04-06T05:18:57.407Z,68.35
2019-04-06T05:21:45.133Z,67.94
2019-04-06T05:24:32.740Z,67.30
2019-04-06T05:27:20.732Z,67.26
2019-04-06T05:30:09.410Z,66.90
2019-04-06T05:32:56.902Z,67.06
2019-04-06T05:35:44.603Z,66.29
2019-04-06T05:38:32.043Z,64.99
2019-04-06T05:41:19.622Z,63.32
2019-04-06T05:44:07.161Z,61.14
2019-04-06T05:46:54.598Z,59.11
2019-04-06T05:49:42.296Z,57.11
2019-04-06T05:52:29.638Z,55.45
2019-04-06T05:55:17.310Z,53.60
2019-04-06T05:58:09.673Z,52.53
2019-04-06T06:00:54.269Z,51.55
2019-04-06T06:03:41.778Z,51.08
2019-04-06T06:06:29.560Z,50.32
2019-04-06T06:09:17.298Z,49.33
2019-04-06T06:12:05.032Z,49.38
2019-04-06T06:14:52.522Z,49.39
2019-04-06T06:17:40.169Z,49.28
2019-04-06T06:20:27.199Z,49.88
2019-04-06T06:23:14.557Z,49.95
2019-04-06T06:26:02.548Z,50.10
2019-04-06T06:28:50.449Z,50.81
2019-04-06T06:31:38.016Z,50.64
2019-04-06T06:34:25.158Z,50.44
2019-04-06T06:37:13.141Z,49.73
2019-04-06T06:40:00.669Z,50.01
2019-04-06T06:42:48.634Z,50.06
2019-04-06T06:45:35.882Z,50.37
2019-04-06T06:48:23.485Z,50.81
2019-04-06T06:51:10.958Z,50.86
2019-04-06T06:53:58.738Z,50.82
2019-04-06T06:56:46.249Z,50.69
2019-04-06T06:59:33.995Z,50.12
2019-04-06T07:02:21.331Z,49.02
2019-04-06T07:05:08.898Z,48.67
2019-04-06T07:07:56.525Z,48.93
2019-04-06T07:10:43.890Z,49.22
2019-04-06T07:13:35.073Z,49.05
2019-04-06T07:16:22.828Z,49.01
2019-04-06T07:19:10.206Z,50.35
2019-04-06T07:21:58.303Z,48.29
2019-04-06T07:24:45.982Z,47.39
2019-04-06T07:27:33.604Z,47.34
2019-04-06T07:30:20.947Z,47.19
2019-04-06T07:33:08.128Z,47.34
2019-04-06T07:35:55.256Z,47.47
2019-04-06T07:38:43.231Z,47.91
2019-04-06T07:41:30.798Z,48.52
2019-04-06T07:44:18.371Z,48.39
2019-04-06T07:47:05.955Z,49.83
2019-04-06T07:49:53.591Z,49.21
2019-04-06T07:52:41.141Z,49.72
2019-04-06T07:55:28.926Z,48.41
2019-04-06T07:58:16.702Z,48.29
2019-04-06T08:01:04.214Z,47.51
2019-04-06T08:03:51.645Z,47.51
2019-04-06T08:06:38.907Z,47.43
2019-04-06T08:09:26.434Z,45.58
2019-04-06T08:12:14.282Z,45.57
2019-04-06T08:15:02.206Z,45.57
2019-04-06T08:17:49.755Z,44.29
2019-04-06T08:20:37.322Z,44.04
2019-04-06T08:23:25.272Z,41.82
2019-04-06T08:26:13.206Z,42.42
2019-04-06T08:29:02.725Z,42.53
2019-04-06T08:31:50.398Z,43.25
2019-04-06T08:34:38.105Z,42.62
2019-04-06T08:37:26.010Z,44.28
2019-04-06T08:40:13.375Z,44.35
2019-04-06T08:43:00.887Z,43.88
2019-04-06T08:45:48.311Z,43.33
2019-04-06T08:48:35.709Z,43.30
2019-04-06T08:51:23.032Z,46.69
2019-04-06T08:54:10.816Z,47.61
2019-04-06T08:56:57.961Z,47.30
2019-04-06T08:59:45.920Z,46.65
2019-04-06T09:02:33.562Z,46.51
2019-04-06T09:05:21.186Z,47.74
2019-04-06T09:08:08.171Z,48.38
2019-04-06T09:10:55.603Z,47.48
2019-04-06T09:13:42.851Z,47.09
2019-04-06T09:16:30.017Z,46.99
2019-04-06T09:19:17.310Z,47.19
2019-04-06T09:22:05.062Z,46.77
2019-04-06T09:24:53.017Z,46.86
2019-04-06T09:27:40.460Z,46.55
2019-04-06T09:30:27.968Z,46.14
2019-04-06T09:33:15.350Z,46.79
2019-04-06T09:36:03.004Z,46.37
2019-04-06T09:38:50.840Z,46.73
2019-04-06T09:41:38.258Z,47.49
2019-04-06T09:44:36.522Z,46.98
2019-04-06T09:47:32.238Z,47.80
2019-04-06T09:50:38.768Z,47.77
2019-04-06T09:54:05.215Z,47.48
2019-04-06T09:57:15.164Z,46.63
2019-04-06T10:00:11.711Z,47.64
2019-04-06T10:03:18.219Z,46.74
2019-04-06T10:06:15.659Z,47.94
2019-04-06T10:09:21.031Z,47.65
2019-04-06T10:12:36.975Z,46.27
2019-04-06T10:15:42.512Z,47.59
2019-04-06T10:18:49.249Z,47.05
2019-04-06T10:21:54.594Z,45.50
2019-04-06T10:24:59.866Z,44.06
2019-04-06T10:28:05.186Z,44.71
2019-04-06T10:31:12.859Z,45.15
2019-04-06T10:34:19.719Z,45.10
2019-04-06T10:37:23.131Z,43.90
2019-04-06T10:40:29.524Z,43.98
2019-04-06T10:43:21.916Z,44.34
2019-04-06T10:46:38.591Z,45.41
2019-04-06T10:49:43.647Z,46.38
2019-04-06T10:53:08.405Z,45.22
2019-04-06T10:56:08.494Z,46.13
2019-04-06T10:59:12.243Z,45.57
2019-04-06T11:02:17.648Z,45.14
2019-04-06T11:05:11.427Z,44.69
2019-04-06T11:08:27.049Z,44.69
2019-04-06T11:11:51.852Z,44.42
2019-04-06T11:14:56.246Z,44.20
2019-04-06T11:17:53.439Z,44.04
2019-04-06T11:20:48.604Z,42.42
2019-04-06T11:23:53.736Z,42.71
2019-04-06T11:26:53.565Z,43.85
2019-04-06T11:29:58.519Z,43.83
2019-04-06T11:33:03.642Z,44.32
2019-04-06T11:36:04.995Z,44.31
2019-04-06T11:39:21.135Z,44.07
2019-04-06T11:42:37.324Z,43.78
2019-04-06T11:45:49.626Z,43.80
2019-04-06T11:49:02.833Z,43.06
2019-04-06T11:52:14.001Z,42.71
2019-04-06T11:55:09.088Z,42.74
2019-04-06T11:58:08.155Z,42.63
2019-04-06T12:01:17.603Z,42.79
2019-04-06T12:04:30.398Z,42.04
2019-04-06T12:07:35.720Z,41.72
2019-04-06T12:10:36.507Z,42.20
2019-04-06T12:13:33.452Z,42.22
2019-04-06T12:16:39.187Z,40.42
2019-04-06T12:19:55.157Z,40.87
2019-04-06T12:22:52.296Z,40.49
2019-04-06T12:26:14.351Z,40.43
2019-04-06T12:29:16.137Z,40.48
2019-04-06T12:32:15.628Z,40.70
2019-04-06T12:35:20.509Z,39.96
2019-04-06T12:38:21.201Z,40.43
2019-04-06T12:41:23.823Z,41.21
2019-04-06T12:44:29.693Z,41.88
2019-04-06T12:47:35.582Z,41.00
2019-04-06T12:50:47.205Z,41.02
2019-04-06T12:53:53.843Z,40.21
2019-04-06T12:57:00.226Z,39.88
2019-04-06T13:00:03.368Z,40.53
2019-04-06T13:03:11.006Z,41.28
2019-04-06T13:06:16.796Z,41.44
2019-04-06T13:09:34.042Z,41.75
2019-04-06T13:12:49.444Z,41.06
2019-04-06T13:15:56.281Z,40.56
2019-04-06T13:19:06.641Z,40.88
2019-04-06T13:22:10.228Z,40.56
2019-04-06T13:25:05.392Z,40.90
2019-04-06T13:28:18.298Z,41.02
2019-04-06T13:31:33.946Z,41.42
2019-04-06T13:34:31.229Z,41.77
2019-04-06T13:37:33.149Z,42.33
2019-04-06T13:40:42.748Z,43.04
2019-04-06T13:43:52.327Z,42.99
2019-04-06T13:46:48.139Z,42.59
2019-04-06T13:49:43.308Z,42.80
2019-04-06T13:52:46.632Z,43.38
2019-04-06T13:55:51.226Z,43.38
2019-04-06T13:58:50.957Z,42.90
2019-04-06T14:01:56.397Z,43.10
2019-04-06T14:05:01.371Z,43.85
2019-04-06T14:08:17.051Z,42.32
2019-04-06T14:11:23.557Z,42.40
2019-04-06T14:14:45.881Z,42.27
2019-04-06T14:17:43.788Z,42.85
2019-04-06T14:20:54.387Z,42.91
2019-04-06T14:24:01.050Z,42.69
2019-04-06T14:27:06.472Z,42.91
2019-04-06T14:30:11.270Z,42.90
2019-04-06T14:33:06.900Z,42.90
2019-04-06T14:36:11.890Z,43.57
2019-04-06T14:39:11.824Z,43.02
2019-04-06T14:42:30.481Z,43.00
2019-04-06T14:45:44.344Z,43.04
2019-04-06T14:48:40.614Z,42.55
2019-04-06T14:51:40.525Z,42.17
2019-04-06T14:54:47.024Z,42.06
2019-04-06T14:57:42.325Z,42.62
2019-04-06T15:00:39.768Z,41.82
2019-04-06T15:03:39.162Z,41.85
2019-04-06T15:06:41.575Z,41.74
2019-04-06T15:09:37.245Z,41.81
2019-04-06T15:12:31.517Z,42.25
2019-04-06T15:15:36.872Z,42.31
2019-04-06T15:18:49.529Z,42.33
2019-04-06T15:22:03.459Z,41.63
2019-04-06T15:25:05.919Z,41.30
2019-04-06T15:28:11.302Z,39.94
2019-04-06T15:31:16.338Z,39.82
2019-04-06T15:34:26.244Z,39.81
2019-04-06T15:37:32.700Z,39.09
2019-04-06T15:40:36.162Z,39.36
2019-04-06T15:43:42.586Z,38.82
2019-04-06T15:46:52.133Z,38.90
2019-04-06T15:50:01.455Z,38.95
2019-04-06T15:52:54.740Z,38.83
2019-04-06T15:56:03.721Z,39.12
2019-04-06T15:58:59.743Z,39.11
2019-04-06T16:02:06.369Z,39.24
2019-04-06T16:05:16.164Z,39.76
2019-04-06T16:08:19.567Z,39.50
2019-04-06T16:11:25.376Z,39.42
2019-04-06T16:14:44.797Z,38.97
2019-04-06T16:17:39.196Z,39.34
2019-04-06T16:20:59.199Z,38.99
2019-04-06T16:24:02.158Z,39.78
2019-04-06T16:26:53.871Z,39.53
2019-04-06T16:29:47.477Z,40.14
2019-04-06T16:32:50.191Z,40.04
2019-04-06T16:35:49.046Z,40.64
2019-04-06T16:38:54.350Z,40.88
2019-04-06T16:41:57.812Z,40.93
2019-04-06T16:45:23.031Z,41.43
2019-04-06T16:48:44.509Z,41.11
2019-04-06T16:51:44.896Z,41.13
2019-04-06T16:54:41.656Z,41.23
2019-04-06T16:57:46.966Z,41.58
2019-04-06T17:01:06.520Z,42.50
2019-04-06T17:04:15.939Z,42.91
2019-04-06T17:07:26.319Z,44.79
2019-04-06T17:10:20.741Z,44.61
2019-04-06T17:13:27.077Z,45.11
2019-04-06T17:16:33.142Z,45.50
2019-04-06T17:19:34.817Z,45.83
2019-04-06T17:22:43.037Z,46.12
2019-04-06T17:25:49.927Z,45.90
2019-04-06T17:28:54.948Z,45.63
2019-04-06T17:32:01.347Z,46.07
2019-04-06T17:35:09.312Z,46.63
2019-04-06T17:38:02.534Z,46.84
2019-04-06T17:41:07.661Z,47.02
2019-04-06T17:44:07.337Z,47.17
2019-04-06T17:47:18.133Z,47.47
2019-04-06T17:50:23.482Z,47.93
2019-04-06T17:53:36.214Z,48.65
2019-04-06T17:56:41.513Z,48.62
2019-04-06T17:59:47.047Z,48.45
2019-04-06T18:02:51.110Z,48.88
2019-04-06T18:05:56.974Z,49.18
2019-04-06T18:09:08.904Z,49.67
2019-04-06T18:12:15.119Z,49.78
2019-04-06T18:15:03.481Z,50.00
2019-04-06T18:17:51.000Z,51.27
2019-04-06T18:20:38.387Z,51.33
2019-04-06T18:23:25.837Z,51.83
2019-04-06T18:26:13.204Z,51.79
2019-04-06T18:29:00.919Z,51.84
2019-04-06T18:31:58.140Z,51.86
2019-04-06T18:34:45.836Z,50.82
2019-04-06T18:37:44.784Z,50.83
2019-04-06T18:40:32.255Z,50.99
2019-04-06T18:43:20.731Z,50.87
2019-04-06T18:46:08.124Z,51.29
2019-04-06T18:48:55.701Z,51.17
2019-04-06T18:51:43.400Z,50.92
2019-04-06T18:54:31.266Z,51.55
2019-04-06T18:57:18.860Z,52.01
2019-04-06T19:00:11.580Z,51.81
2019-04-06T19:03:11.071Z,51.61
2019-04-06T19:05:49.826Z,51.68
2019-04-06T19:08:36.581Z,53.07
2019-04-06T19:11:24.235Z,54.04
2019-04-06T19:14:12.378Z,54.19
2019-04-06T19:16:59.740Z,54.27
2019-04-06T19:19:47.167Z,54.18
2019-04-06T19:22:34.341Z,54.01
2019-04-06T19:25:22.128Z,54.14
2019-04-06T19:28:09.734Z,54.10
2019-04-06T19:30:57.634Z,54.01
2019-04-06T19:33:45.634Z,54.26
2019-04-06T19:36:33.460Z,54.32
2019-04-06T19:39:20.805Z,53.91
2019-04-06T19:42:08.469Z,53.54
2019-04-06T19:44:55.909Z,54.00
2019-04-06T19:47:43.647Z,53.85
2019-04-06T19:50:30.875Z,53.82
2019-04-06T19:53:18.418Z,54.03
2019-04-06T19:56:05.895Z,53.92
2019-04-06T19:58:54.020Z,53.85
2019-04-06T20:02:41.865Z,53.83
2019-04-06T20:05:29.572Z,54.32
2019-04-06T20:08:17.463Z,54.51
2019-04-06T20:11:05.498Z,54.77
2019-04-06T20:13:53.852Z,54.92
2019-04-06T20:16:41.955Z,55.06
2019-04-06T20:19:29.552Z,55.27
2019-04-06T20:22:18.135Z,55.47
2019-04-06T20:25:06.295Z,55.54
2019-04-06T20:27:53.944Z,55.64
2019-04-06T20:30:42.052Z,56.04
2019-04-06T20:33:29.542Z,56.35
2019-04-06T20:36:17.075Z,56.44
2019-04-06T20:39:25.837Z,56.49
2019-04-06T20:42:13.468Z,56.29
2019-04-06T20:45:00.937Z,56.23
2019-04-06T20:47:48.521Z,56.57
2019-04-06T20:50:36.417Z,56.53
2019-04-06T20:53:24.138Z,56.80
2019-04-06T20:56:11.838Z,56.65
2019-04-06T20:58:59.903Z,56.69
2019-04-06T21:01:47.155Z,56.58
2019-04-06T21:04:37.330Z,56.86
2019-04-06T21:07:25.056Z,57.06
2019-04-06T21:10:13.801Z,56.90
2019-04-06T21:13:01.394Z,57.19
2019-04-06T21:15:48.930Z,57.47
2019-04-06T21:18:36.714Z,57.28
2019-04-06T21:21:24.841Z,57.21
2019-04-06T21:24:12.549Z,57.83
2019-04-06T21:27:00.120Z,57.84
2019-04-06T21:29:47.783Z,57.94
2019-04-06T21:32:36.091Z,57.81
2019-04-06T21:35:23.577Z,57.86
2019-04-06T21:38:14.318Z,58.18
2019-04-06T21:41:01.569Z,57.54
2019-04-06T21:43:49.509Z,57.84
2019-04-06T21:46:38.027Z,57.94
2019-04-06T21:49:25.766Z,57.97
2019-04-06T21:52:13.363Z,57.97
2019-04-06T21:55:01.018Z,58.16
2019-04-06T21:57:48.575Z,58.08
2019-04-06T22:00:52.754Z,57.41
2019-04-06T22:03:40.794Z,57.66
2019-04-06T22:06:28.325Z,58.19
2019-04-06T22:09:16.380Z,58.25
2019-04-06T22:12:04.881Z,58.24
2019-04-06T22:14:52.942Z,57.89
2019-04-06T22:17:41.011Z,58.52
2019-04-06T22:20:28.946Z,58.62
2019-04-06T22:23:16.760Z,58.66
2019-04-06T22:26:04.582Z,58.61
2019-04-06T22:28:52.302Z,58.99
2019-04-06T22:31:39.835Z,59.47
2019-04-06T22:34:36.973Z,59.37
2019-04-06T22:37:16.622Z,58.83
2019-04-06T22:42:34.251Z,59.09
2019-04-06T22:45:23.264Z,59.41
2019-04-06T22:48:10.830Z,59.33
2019-04-06T22:50:58.711Z,59.93
2019-04-06T22:53:46.467Z,59.55
2019-04-06T22:56:33.914Z,59.80
2019-04-06T22:59:21.196Z,59.83
2019-04-06T23:02:09.332Z,60.33
2019-04-06T23:05:06.220Z,60.44
2019-04-06T23:07:53.658Z,61.32
2019-04-06T23:10:41.178Z,60.94
2019-04-06T23:13:29.222Z,61.09
2019-04-06T23:16:16.992Z,61.02
2019-04-06T23:19:05.134Z,60.28
2019-04-06T23:21:53.159Z,60.62
2019-04-06T23:24:40.949Z,60.62
2019-04-06T23:27:28.273Z,60.79
2019-04-06T23:30:16.053Z,60.63
2019-04-06T23:33:03.964Z,61.28
2019-04-06T23:35:51.746Z,60.74
2019-04-06T23:38:39.521Z,60.47
2019-04-06T23:41:26.775Z,60.96
2019-04-06T23:44:14.649Z,60.84
2019-04-06T23:47:03.235Z,61.16
2019-04-06T23:49:51.755Z,61.09
2019-04-06T23:52:39.086Z,60.61
2019-04-06T23:55:27.148Z,60.18
2019-04-06T23:58:14.473Z,60.03
